createdAt,value
2022-07-29T00:01:45.646Z,2.83
2022-07-29T00:04:15.102Z,2.67
2022-07-29T00:06:44.326Z,2.50
2022-07-29T00:09:13.235Z,2.92
2022-07-29T00:11:43.605Z,2.38
2022-07-29T00:14:12.590Z,2.42
2022-07-29T00:16:41.671Z,2.80
2022-07-29T00:19:10.569Z,2.90
2022-07-29T00:21:39.895Z,2.45
2022-07-29T00:24:09.447Z,2.35
2022-07-29T00:26:38.383Z,2.50
2022-07-29T00:31:57.511Z,2.20
2022-07-29T00:34:43.603Z,2.47
2022-07-29T00:37:12.390Z,2.55
2022-07-29T00:39:41.198Z,3.47
2022-07-29T00:42:10.858Z,2.35
2022-07-29T00:44:42.651Z,2.23
2022-07-29T00:47:13.059Z,2.60
2022-07-29T00:49:43.301Z,1.92
2022-07-29T00:52:16.918Z,1.92
2022-07-29T00:54:46.712Z,2.33
2022-07-29T00:57:15.824Z,2.00
2022-07-29T00:59:46.125Z,2.15
2022-07-29T01:02:18.004Z,2.15
2022-07-29T01:04:49.911Z,2.30
2022-07-29T01:07:20.510Z,2.40
2022-07-29T01:09:49.894Z,2.37
2022-07-29T01:12:28.012Z,1.95
2022-07-29T01:14:59.063Z,2.03
2022-07-29T01:17:34.728Z,2.15
2022-07-29T01:20:12.915Z,1.83
2022-07-29T01:23:16.005Z,1.80
2022-07-29T01:26:03.967Z,1.80
2022-07-29T01:28:50.052Z,2.08
2022-07-29T01:31:33.819Z,2.00
2022-07-29T01:34:12.225Z,1.88
2022-07-29T01:36:54.516Z,2.50
2022-07-29T01:39:29.670Z,2.05
2022-07-29T01:42:11.502Z,2.17
2022-07-29T01:44:51.342Z,2.22
2022-07-29T01:47:27.804Z,2.40
2022-07-29T01:50:02.483Z,2.63
2022-07-29T01:52:40.440Z,2.42
2022-07-29T01:55:17.130Z,1.98
2022-07-29T01:57:50.179Z,2.58
2022-07-29T02:00:21.785Z,2.05
2022-07-29T02:02:52.914Z,2.20
2022-07-29T02:05:24.787Z,2.15
2022-07-29T02:07:56.301Z,2.00
2022-07-29T02:10:30.971Z,2.30
2022-07-29T02:13:03.543Z,2.10
2022-07-29T02:15:40.142Z,2.90
2022-07-29T02:18:16.531Z,2.10
2022-07-29T02:20:50.756Z,1.95
2022-07-29T02:23:25.277Z,2.58
2022-07-29T02:25:58.182Z,2.35
2022-07-29T02:28:31.643Z,2.37
2022-07-29T02:31:05.834Z,1.92
2022-07-29T02:33:36.105Z,2.40
2022-07-29T02:36:06.246Z,2.00
2022-07-29T02:38:53.761Z,2.10
2022-07-29T02:41:30.614Z,2.43
2022-07-29T02:44:07.390Z,2.00
2022-07-29T02:46:40.244Z,2.28
2022-07-29T02:49:18.317Z,2.20
2022-07-29T02:51:57.454Z,2.40
2022-07-29T02:54:34.068Z,1.90
2022-07-29T02:57:17.568Z,2.15
2022-07-29T02:59:52.212Z,1.90
2022-07-29T03:02:24.259Z,2.05
2022-07-29T03:04:56.510Z,1.70
2022-07-29T03:07:27.780Z,2.07
2022-07-29T03:09:58.072Z,2.05
2022-07-29T03:12:29.517Z,2.22
2022-07-29T03:15:01.220Z,2.35
2022-07-29T03:17:35.176Z,2.10
2022-07-29T03:20:05.103Z,2.17
2022-07-29T03:22:34.253Z,2.30
2022-07-29T03:25:14.031Z,2.17
2022-07-29T03:27:42.951Z,2.42
2022-07-29T03:30:21.763Z,2.20
2022-07-29T03:32:54.652Z,2.10
2022-07-29T03:35:25.807Z,2.03
2022-07-29T03:37:54.639Z,2.13
2022-07-29T03:40:29.947Z,1.85
2022-07-29T03:43:01.435Z,1.73
2022-07-29T03:45:34.159Z,1.97
2022-07-29T03:48:12.699Z,2.05
2022-07-29T03:50:43.863Z,1.75
2022-07-29T03:53:13.370Z,1.67
2022-07-29T03:55:47.274Z,1.65
2022-07-29T03:58:18.829Z,1.70
2022-07-29T04:00:48.743Z,1.70
2022-07-29T04:03:19.992Z,2.40
2022-07-29T04:06:02.467Z,12.43
2022-07-29T04:08:34.740Z,15.13
2022-07-29T04:11:08.229Z,24.13
2022-07-29T04:13:37.484Z,19.40
2022-07-29T04:16:07.064Z,13.30
2022-07-29T04:18:37.377Z,3.05
2022-07-29T04:21:06.256Z,4.38
2022-07-29T04:23:49.370Z,4.10
2022-07-29T04:26:23.334Z,2.28
2022-07-29T04:28:52.189Z,2.35
2022-07-29T04:31:25.556Z,1.63
2022-07-29T04:33:56.510Z,3.13
2022-07-29T04:36:28.696Z,2.33
2022-07-29T04:38:58.758Z,2.20
2022-07-29T04:41:33.163Z,2.67
2022-07-29T04:44:06.171Z,2.22
2022-07-29T04:46:46.517Z,2.78
2022-07-29T04:49:19.503Z,2.30
2022-07-29T04:51:49.672Z,2.08
2022-07-29T04:54:18.872Z,2.08
2022-07-29T04:56:51.874Z,1.98
2022-07-29T04:59:20.792Z,1.75
2022-07-29T05:01:49.852Z,1.50
2022-07-29T05:04:20.692Z,2.05
2022-07-29T05:06:50.770Z,1.42
2022-07-29T05:09:19.677Z,1.83
2022-07-29T05:11:48.558Z,1.63
2022-07-29T05:14:17.845Z,2.20
2022-07-29T05:16:46.856Z,1.27
2022-07-29T05:19:15.881Z,1.55
2022-07-29T05:21:47.292Z,2.00
2022-07-29T05:24:16.650Z,1.48
2022-07-29T05:26:45.913Z,1.87
2022-07-29T05:29:42.750Z,1.38
2022-07-29T05:32:03.590Z,1.60
2022-07-29T05:34:32.649Z,0.95
2022-07-29T05:37:02.902Z,1.13
2022-07-29T05:39:47.222Z,1.30
2022-07-29T05:42:19.893Z,1.13
2022-07-29T05:44:49.632Z,0.98
2022-07-29T05:47:18.481Z,1.10
2022-07-29T05:49:47.441Z,1.48
2022-07-29T05:52:19.154Z,0.97
2022-07-29T05:54:47.969Z,1.10
2022-07-29T05:57:20.933Z,0.80
2022-07-29T05:59:50.922Z,1.00
2022-07-29T06:02:32.237Z,0.82
2022-07-29T06:05:01.111Z,1.47
2022-07-29T06:07:33.936Z,0.80
2022-07-29T06:10:06.362Z,0.70
2022-07-29T06:12:35.445Z,1.10
2022-07-29T06:15:04.541Z,1.13
2022-07-29T06:17:33.685Z,0.80
2022-07-29T06:20:02.905Z,0.77
2022-07-29T06:22:34.280Z,0.90
2022-07-29T06:25:04.765Z,0.57
2022-07-29T06:27:33.636Z,0.73
2022-07-29T06:30:07.713Z,0.80
2022-07-29T06:32:42.727Z,0.90
2022-07-29T06:35:37.795Z,1.00
2022-07-29T06:38:02.581Z,0.80
2022-07-29T06:40:49.000Z,0.88
2022-07-29T06:43:17.875Z,0.97
2022-07-29T06:45:46.831Z,1.20
2022-07-29T06:48:15.713Z,1.17
2022-07-29T06:50:44.655Z,0.70
2022-07-29T06:53:15.465Z,1.33
2022-07-29T06:55:44.586Z,1.17
2022-07-29T06:58:15.253Z,0.70
2022-07-29T07:00:44.040Z,0.43
2022-07-29T07:03:13.023Z,1.05
2022-07-29T07:05:42.173Z,0.60
2022-07-29T07:08:11.206Z,0.50
2022-07-29T07:10:41.897Z,0.50
2022-07-29T07:13:13.648Z,0.60
2022-07-29T07:15:42.821Z,0.65
2022-07-29T07:18:11.803Z,0.60
2022-07-29T07:20:40.667Z,0.83
2022-07-29T07:23:09.562Z,0.40
2022-07-29T07:25:38.736Z,0.70
2022-07-29T07:28:09.083Z,0.52
2022-07-29T07:30:44.645Z,0.88
2022-07-29T07:33:13.634Z,0.50
2022-07-29T07:35:42.780Z,0.50
2022-07-29T07:38:11.914Z,0.52
2022-07-29T07:40:41.424Z,0.38
2022-07-29T07:43:11.691Z,0.47
2022-07-29T07:45:41.320Z,0.40
2022-07-29T07:48:11.290Z,0.80
2022-07-29T07:50:40.228Z,0.60
2022-07-29T07:53:09.194Z,0.40
2022-07-29T07:58:35.870Z,0.47
2022-07-29T08:01:07.701Z,0.40
2022-07-29T08:03:36.669Z,0.82
2022-07-29T08:06:07.257Z,0.50
2022-07-29T08:08:37.158Z,0.77
2022-07-29T08:11:09.806Z,0.67
2022-07-29T08:13:40.766Z,0.70
2022-07-29T08:16:16.596Z,0.70
2022-07-29T08:18:47.677Z,0.70
2022-07-29T08:21:17.448Z,0.30
2022-07-29T08:24:00.809Z,0.60
2022-07-29T08:26:31.916Z,0.40
2022-07-29T08:29:02.591Z,0.40
2022-07-29T08:31:31.701Z,0.50
2022-07-29T08:34:01.167Z,0.93
2022-07-29T08:36:30.247Z,0.40
2022-07-29T08:38:59.722Z,0.40
2022-07-29T08:41:30.041Z,0.57
2022-07-29T08:43:58.839Z,0.30
2022-07-29T08:46:30.463Z,0.63
2022-07-29T08:49:04.452Z,0.63
2022-07-29T08:51:49.388Z,0.40
2022-07-29T08:54:21.079Z,0.55
2022-07-29T08:56:54.845Z,0.70
2022-07-29T08:59:29.077Z,0.60
2022-07-29T09:02:02.721Z,0.77
2022-07-29T09:04:38.298Z,0.50
2022-07-29T09:07:08.582Z,0.55
2022-07-29T09:09:39.077Z,0.47
2022-07-29T09:12:09.381Z,0.50
2022-07-29T09:14:38.341Z,1.10
2022-07-29T09:17:10.018Z,0.40
2022-07-29T09:19:45.387Z,0.40
2022-07-29T09:22:41.852Z,0.40
2022-07-29T09:25:14.874Z,0.55
2022-07-29T09:27:44.181Z,0.50
2022-07-29T09:30:17.398Z,0.40
2022-07-29T09:33:08.924Z,0.60
2022-07-29T09:35:37.684Z,0.30
2022-07-29T09:38:14.340Z,0.45
2022-07-29T09:40:43.480Z,0.37
2022-07-29T09:43:14.439Z,0.50
2022-07-29T09:45:43.732Z,0.60
2022-07-29T09:48:20.235Z,0.50
2022-07-29T09:50:50.842Z,0.30
2022-07-29T09:53:40.978Z,0.40
2022-07-29T09:56:11.752Z,0.40
2022-07-29T09:58:40.813Z,0.40
2022-07-29T10:01:09.798Z,0.50
2022-07-29T10:06:30.862Z,0.40
2022-07-29T10:09:16.637Z,0.47
2022-07-29T10:12:10.291Z,0.70
2022-07-29T10:14:40.889Z,0.73
2022-07-29T10:17:11.168Z,0.40
2022-07-29T10:19:43.031Z,0.47
2022-07-29T10:22:14.973Z,0.60
2022-07-29T10:24:44.009Z,0.77
2022-07-29T10:27:13.772Z,0.52
2022-07-29T10:29:42.837Z,0.60
2022-07-29T10:32:33.138Z,0.40
2022-07-29T10:35:22.198Z,0.50
2022-07-29T10:38:29.483Z,0.30
2022-07-29T10:41:32.060Z,0.47
2022-07-29T10:44:17.147Z,0.43
2022-07-29T10:46:51.736Z,0.50
2022-07-29T10:49:25.202Z,0.30
2022-07-29T10:52:06.984Z,0.30
2022-07-29T10:54:48.466Z,0.40
2022-07-29T10:57:53.026Z,0.20
2022-07-29T11:00:34.984Z,0.30
2022-07-29T11:03:08.526Z,0.30
2022-07-29T11:05:59.930Z,0.40
2022-07-29T11:08:29.950Z,0.40
2022-07-29T11:11:44.079Z,0.30
2022-07-29T11:14:26.579Z,0.28
2022-07-29T11:17:09.179Z,0.32
2022-07-29T11:19:44.733Z,0.30
2022-07-29T11:22:43.127Z,0.47
2022-07-29T11:25:17.712Z,0.30
2022-07-29T11:27:48.202Z,0.40
2022-07-29T11:30:17.551Z,0.30
2022-07-29T11:32:48.668Z,0.38
2022-07-29T11:35:37.315Z,0.40
2022-07-29T11:38:29.292Z,0.30
2022-07-29T11:41:27.160Z,0.30
2022-07-29T11:44:00.132Z,0.28
2022-07-29T11:46:50.118Z,0.45
2022-07-29T11:49:31.955Z,0.30
2022-07-29T11:52:04.010Z,0.30
2022-07-29T11:54:57.030Z,0.40
2022-07-29T11:57:36.070Z,0.50
2022-07-29T12:00:12.342Z,0.35
2022-07-29T12:02:48.227Z,0.30
2022-07-29T12:05:35.892Z,0.23
2022-07-29T12:08:15.679Z,0.60
2022-07-29T12:10:46.958Z,0.38
2022-07-29T12:13:22.235Z,0.43
2022-07-29T12:16:00.142Z,0.32
2022-07-29T12:18:29.375Z,0.30
2022-07-29T12:21:04.901Z,0.40
2022-07-29T12:23:37.555Z,0.30
2022-07-29T12:26:10.974Z,0.52
2022-07-29T12:28:52.314Z,0.30
2022-07-29T12:31:43.236Z,0.30
2022-07-29T12:34:14.084Z,0.43
2022-07-29T12:36:45.081Z,0.32
2022-07-29T12:39:14.589Z,0.35
2022-07-29T12:41:43.841Z,0.20
2022-07-29T12:44:19.178Z,0.50
2022-07-29T12:47:04.878Z,0.30
2022-07-29T12:49:38.141Z,1.15
2022-07-29T12:52:30.107Z,0.20
2022-07-29T12:55:13.552Z,0.30
2022-07-29T12:57:55.630Z,0.20
2022-07-29T13:00:26.386Z,0.30
2022-07-29T13:03:01.866Z,0.50
2022-07-29T13:05:48.867Z,0.28
2022-07-29T13:08:29.640Z,0.60
2022-07-29T13:10:58.686Z,0.47
2022-07-29T13:13:27.618Z,0.30
2022-07-29T13:16:11.690Z,0.40
2022-07-29T13:18:42.419Z,0.40
2022-07-29T13:21:18.981Z,0.60
2022-07-29T13:23:47.908Z,0.57
2022-07-29T13:26:20.765Z,0.30
2022-07-29T13:28:51.864Z,0.30
2022-07-29T13:31:21.074Z,0.28
2022-07-29T13:33:53.811Z,0.32
2022-07-29T13:36:25.057Z,0.30
2022-07-29T13:38:54.144Z,0.47
2022-07-29T13:41:23.177Z,0.40
2022-07-29T13:43:56.407Z,0.30
2022-07-29T13:46:25.435Z,0.20
2022-07-29T13:48:56.854Z,0.70
2022-07-29T13:51:26.716Z,0.47
2022-07-29T13:53:58.461Z,0.30
2022-07-29T13:56:28.023Z,0.30
2022-07-29T13:58:58.495Z,0.40
2022-07-29T14:01:28.653Z,0.30
2022-07-29T14:04:02.119Z,0.20
2022-07-29T14:06:34.564Z,0.30
2022-07-29T14:09:09.716Z,0.50
2022-07-29T14:11:39.541Z,0.30
2022-07-29T14:14:08.550Z,0.90
2022-07-29T14:16:43.034Z,0.22
2022-07-29T14:19:16.770Z,0.30
2022-07-29T14:21:51.612Z,0.35
2022-07-29T14:24:21.642Z,0.20
2022-07-29T14:26:52.971Z,0.20
2022-07-29T14:29:23.315Z,0.50
2022-07-29T14:32:07.812Z,0.38
2022-07-29T14:34:39.478Z,0.30
2022-07-29T14:37:09.537Z,0.30
2022-07-29T14:39:45.127Z,0.60
2022-07-29T14:42:14.219Z,0.30
2022-07-29T14:44:44.661Z,0.32
2022-07-29T14:47:14.108Z,0.43
2022-07-29T14:50:10.963Z,0.50
2022-07-29T14:52:40.335Z,0.50
2022-07-29T14:55:19.408Z,0.40
2022-07-29T14:57:51.281Z,0.32
2022-07-29T15:00:22.435Z,0.30
2022-07-29T15:03:01.914Z,0.50
2022-07-29T15:05:34.119Z,0.50
2022-07-29T15:11:00.560Z,0.50
2022-07-29T15:13:31.069Z,0.45
2022-07-29T15:16:03.707Z,0.50
2022-07-29T15:18:33.328Z,0.50
2022-07-29T15:21:04.098Z,0.55
2022-07-29T15:23:34.055Z,0.85
2022-07-29T15:26:03.725Z,0.50
2022-07-29T15:28:32.817Z,0.32
2022-07-29T15:31:07.509Z,0.40
2022-07-29T15:33:38.116Z,1.25
2022-07-29T15:36:09.398Z,0.38
2022-07-29T15:38:41.952Z,0.40
2022-07-29T15:41:12.587Z,0.55
2022-07-29T15:43:46.088Z,0.40
2022-07-29T15:46:34.361Z,0.25
2022-07-29T15:49:04.932Z,1.10
2022-07-29T15:51:36.666Z,0.30
2022-07-29T15:54:07.385Z,0.30
2022-07-29T15:56:36.718Z,0.20
2022-07-29T15:59:05.660Z,0.30
2022-07-29T16:01:34.634Z,0.20
2022-07-29T16:04:03.554Z,0.30
2022-07-29T16:06:34.259Z,0.40
2022-07-29T16:09:03.167Z,0.60
2022-07-29T16:11:33.843Z,0.30
2022-07-29T16:14:06.560Z,0.40
2022-07-29T16:16:38.457Z,0.40
2022-07-29T16:19:09.813Z,0.40
2022-07-29T16:21:41.029Z,0.73
2022-07-29T16:24:11.668Z,0.70
2022-07-29T16:26:42.437Z,0.63
2022-07-29T16:29:14.224Z,0.90
2022-07-29T16:32:22.623Z,0.57
2022-07-29T16:35:02.258Z,0.83
2022-07-29T16:37:36.945Z,0.70
2022-07-29T16:40:11.806Z,0.60
2022-07-29T16:42:47.001Z,0.80
2022-07-29T16:45:21.463Z,0.88
2022-07-29T16:47:50.744Z,0.90
2022-07-29T16:50:20.258Z,1.17
2022-07-29T16:52:51.842Z,0.82
2022-07-29T16:55:22.046Z,1.00
2022-07-29T16:57:53.884Z,1.13
2022-07-29T17:00:24.957Z,0.90
2022-07-29T17:02:54.100Z,0.85
2022-07-29T17:05:24.181Z,0.75
2022-07-29T17:07:55.037Z,0.70
2022-07-29T17:10:24.645Z,1.05
2022-07-29T17:12:57.026Z,0.80
2022-07-29T17:15:27.066Z,0.68
2022-07-29T17:17:56.722Z,1.00
2022-07-29T17:20:29.975Z,0.98
2022-07-29T17:23:00.461Z,0.88
2022-07-29T17:25:29.295Z,1.10
2022-07-29T17:28:00.967Z,0.80
2022-07-29T17:30:30.590Z,1.00
2022-07-29T17:32:59.408Z,0.93
2022-07-29T17:35:45.783Z,1.30
2022-07-29T17:38:16.025Z,0.80
2022-07-29T17:40:53.967Z,0.80
2022-07-29T17:43:22.801Z,1.08
2022-07-29T17:45:52.085Z,0.90
2022-07-29T17:48:21.228Z,0.93
2022-07-29T17:50:51.124Z,0.73
2022-07-29T17:53:21.386Z,0.82
2022-07-29T17:55:50.263Z,0.90
2022-07-29T17:58:19.470Z,1.10
2022-07-29T18:00:51.342Z,1.40
2022-07-29T18:03:20.668Z,1.00
2022-07-29T18:05:49.847Z,1.40
2022-07-29T18:08:22.219Z,0.75
2022-07-29T18:10:52.657Z,1.15
2022-07-29T18:13:21.740Z,0.73
2022-07-29T18:15:50.936Z,0.57
2022-07-29T18:18:20.009Z,0.50
2022-07-29T18:20:49.362Z,0.60
2022-07-29T18:23:18.310Z,0.70
2022-07-29T18:25:49.039Z,0.50
2022-07-29T18:28:18.131Z,0.70
2022-07-29T18:30:50.265Z,0.45
2022-07-29T18:33:22.303Z,0.63
2022-07-29T18:36:10.877Z,0.80
2022-07-29T18:38:41.618Z,0.70
2022-07-29T18:41:12.189Z,1.00
2022-07-29T18:43:40.939Z,0.90
2022-07-29T18:46:09.738Z,0.80
2022-07-29T18:48:40.925Z,0.52
2022-07-29T18:51:10.921Z,0.82
2022-07-29T18:53:39.828Z,0.70
2022-07-29T18:56:08.584Z,0.63
2022-07-29T18:58:39.464Z,0.73
2022-07-29T19:01:08.371Z,0.60
2022-07-29T19:03:37.211Z,0.57
2022-07-29T19:06:06.840Z,0.50
2022-07-29T19:08:39.674Z,0.60
2022-07-29T19:11:08.602Z,0.70
2022-07-29T19:13:39.078Z,0.90
2022-07-29T19:16:13.479Z,0.70
2022-07-29T19:18:44.737Z,0.97
2022-07-29T19:21:13.640Z,0.93
2022-07-29T19:24:00.743Z,0.85
2022-07-29T19:26:33.466Z,0.90
2022-07-29T19:29:04.657Z,0.93
2022-07-29T19:31:34.990Z,1.07
2022-07-29T19:34:04.107Z,0.80
2022-07-29T19:36:32.990Z,0.80
2022-07-29T19:39:02.501Z,0.80
2022-07-29T19:41:31.744Z,1.00
2022-07-29T19:44:04.738Z,0.80
2022-07-29T19:46:33.498Z,1.00
2022-07-29T19:49:02.525Z,1.10
2022-07-29T19:51:31.622Z,1.10
2022-07-29T19:54:01.464Z,1.15
2022-07-29T19:56:32.073Z,1.10
2022-07-29T19:59:01.936Z,1.08
2022-07-29T20:01:33.322Z,0.80
2022-07-29T20:04:02.227Z,1.20
2022-07-29T20:06:31.061Z,0.82
2022-07-29T20:08:59.836Z,0.90
2022-07-29T20:11:29.854Z,0.98
2022-07-29T20:13:59.810Z,0.80
2022-07-29T20:16:28.636Z,0.70
2022-07-29T20:18:59.369Z,1.00
2022-07-29T20:21:28.179Z,0.97
2022-07-29T20:24:00.441Z,0.70
2022-07-29T20:26:29.460Z,0.82
2022-07-29T20:28:58.758Z,0.80
2022-07-29T20:31:27.869Z,0.70
2022-07-29T20:33:58.125Z,1.20
2022-07-29T20:36:26.911Z,0.68
2022-07-29T20:38:56.192Z,0.70
2022-07-29T20:41:25.312Z,0.75
2022-07-29T20:43:54.139Z,0.70
2022-07-29T20:46:26.066Z,0.97
2022-07-29T20:48:55.005Z,0.77
2022-07-29T20:51:25.741Z,1.17
2022-07-29T20:53:54.642Z,1.58
2022-07-29T20:56:23.406Z,1.52
2022-07-29T20:58:52.502Z,1.27
2022-07-29T21:01:21.660Z,1.30
2022-07-29T21:03:50.807Z,1.00
2022-07-29T21:06:19.645Z,1.20
2022-07-29T21:08:59.900Z,0.80
2022-07-29T21:11:43.385Z,0.80
2022-07-29T21:14:28.000Z,0.90
2022-07-29T21:16:57.179Z,1.10
2022-07-29T21:19:26.383Z,1.20
2022-07-29T21:21:55.212Z,1.00
2022-07-29T21:24:25.439Z,1.00
2022-07-29T21:27:20.738Z,0.80
2022-07-29T21:29:49.878Z,1.45
2022-07-29T21:32:27.385Z,0.90
2022-07-29T21:34:59.579Z,0.60
2022-07-29T21:37:28.435Z,1.00
2022-07-29T21:39:58.992Z,0.70
2022-07-29T21:42:28.121Z,0.52
2022-07-29T21:44:58.325Z,0.52
2022-07-29T21:47:27.271Z,0.50
2022-07-29T21:49:56.429Z,0.53
2022-07-29T21:52:26.219Z,0.50
2022-07-29T21:54:54.998Z,0.63
2022-07-29T21:57:26.568Z,0.68
2022-07-29T21:59:59.501Z,0.60
2022-07-29T22:02:32.033Z,0.80
2022-07-29T22:05:00.910Z,0.57
2022-07-29T22:07:54.330Z,0.50
2022-07-29T22:10:19.084Z,0.55
2022-07-29T22:12:53.150Z,0.60
2022-07-29T22:15:25.523Z,0.60
2022-07-29T22:17:54.834Z,1.08
2022-07-29T22:20:24.511Z,0.82
2022-07-29T22:22:54.070Z,0.65
2022-07-29T22:25:23.912Z,0.82
2022-07-29T22:27:54.172Z,0.60
2022-07-29T22:30:26.832Z,0.70
2022-07-29T22:32:55.640Z,0.50
2022-07-29T22:35:24.538Z,0.63
2022-07-29T22:37:54.279Z,0.70
2022-07-29T22:40:23.348Z,0.90
2022-07-29T22:43:00.967Z,0.75
2022-07-29T22:45:29.760Z,0.90
2022-07-29T22:48:01.734Z,0.88
2022-07-29T22:50:32.435Z,1.20
2022-07-29T22:53:01.324Z,0.80
2022-07-29T22:55:30.314Z,0.88
2022-07-29T22:58:00.564Z,0.95
2022-07-29T23:00:29.413Z,0.63
2022-07-29T23:02:58.188Z,0.60
2022-07-29T23:05:27.410Z,0.60
2022-07-29T23:07:56.191Z,0.70
2022-07-29T23:10:31.048Z,0.50
2022-07-29T23:13:02.755Z,0.45
2022-07-29T23:15:31.725Z,0.57
2022-07-29T23:18:00.892Z,0.47
2022-07-29T23:20:29.969Z,0.60
2022-07-29T23:22:58.737Z,0.45
2022-07-29T23:25:27.521Z,0.40
2022-07-29T23:27:56.344Z,0.40
2022-07-29T23:30:26.958Z,0.30
2022-07-29T23:32:56.324Z,0.38
2022-07-29T23:35:25.487Z,0.40
2022-07-29T23:37:54.696Z,0.50
2022-07-29T23:40:24.822Z,0.52
2022-07-29T23:42:53.656Z,0.50
2022-07-29T23:45:22.463Z,0.30
2022-07-29T23:48:10.273Z,0.30
2022-07-29T23:50:39.154Z,0.30
2022-07-29T23:53:07.978Z,0.40
2022-07-29T23:55:39.312Z,0.40
2022-07-29T23:58:08.339Z,0.65
